Time;durP1;ratioP1;P1;durP2;ratioP2;P2;SDS_P1;SDS_P2;PMS_P1;PMS_P2;Temp;Humidity;BMP_temperature;BMP_pressure;BME280_temperature;BME280_humidity;BME280_pressure;Samples;Min_cycle;Max_cycle;Signal;HPM_P1;HPM_P2
2022/04/06 00:03:50;;;;;;;8.18;6.97;;;9.90;99.90;;;;;;5076787;28;20024;-93
2022/04/06 00:06:17;;;;;;;10.45;6.82;;;9.90;99.90;;;;;;5058476;28;20020;-93
2022/04/06 00:08:42;;;;;;;9.98;7.68;;;9.90;99.90;;;;;;5058903;28;20079;-92
2022/04/06 00:11:08;;;;;;;12.70;8.00;;;9.90;99.90;;;;;;5059248;28;20074;-92
2022/04/06 00:14:01;;;;;;;10.55;7.40;;;10.00;99.90;;;;;;5075803;28;20029;-95
2022/04/06 00:16:27;;;;;;;11.60;7.43;;;9.90;99.90;;;;;;5059572;28;20025;-95
2022/04/06 00:18:52;;;;;;;10.45;7.80;;;9.90;99.90;;;;;;5058310;28;20507;-92
2022/04/06 00:24:40;;;;;;;10.82;7.13;;;9.90;99.90;;;;;;5076628;28;20047;-94
2022/04/06 00:30:28;;;;;;;12.13;7.78;;;9.80;99.90;;;;;;5076976;28;20024;-95
2022/04/06 00:36:15;;;;;;;11.77;7.28;;;9.80;99.90;;;;;;5075644;28;20078;-93
2022/04/06 00:42:04;;;;;;;12.60;7.25;;;9.80;99.90;;;;;;5075913;28;20018;-92
2022/04/06 00:48:05;;;;;;;11.82;8.48;;;9.80;99.90;;;;;;5075092;28;20557;-94
2022/04/06 00:57:27;;;;;;;15.77;9.82;;;9.90;99.90;;;;;;5075139;28;20024;-94
2022/04/06 00:59:58;;;;;;;19.20;10.13;;;9.90;99.90;;;;;;5056735;28;20035;-93
2022/04/06 01:02:24;;;;;;;19.40;11.63;;;9.90;99.90;;;;;;5057537;28;20029;-93
2022/04/06 01:04:49;;;;;;;16.98;9.98;;;9.80;99.90;;;;;;5057533;28;20524;-94
2022/04/06 01:07:30;;;;;;;15.48;11.00;;;9.90;99.90;;;;;;5057086;28;20055;-94
2022/04/06 01:09:55;;;;;;;24.58;13.10;;;9.90;99.90;;;;;;5057750;28;20444;-93
2022/04/06 01:12:22;;;;;;;22.05;11.90;;;9.80;99.90;;;;;;5056816;28;20024;-93
2022/04/06 01:18:09;;;;;;;21.88;12.40;;;9.80;99.90;;;;;;5075252;28;20023;-94
2022/04/06 01:21:12;;;;;;;23.27;12.43;;;9.80;99.90;;;;;;5058009;28;20024;-92
2022/04/06 01:23:42;;;;;;;24.65;13.48;;;9.90;99.90;;;;;;5056981;28;20397;-93
2022/04/06 01:26:09;;;;;;;18.52;12.25;;;9.80;99.90;;;;;;5056008;28;20040;-92
2022/04/06 01:29:31;;;;;;;26.88;13.30;;;9.90;99.90;;;;;;5073970;28;20023;-92
2022/04/06 01:38:42;;;;;;;22.08;13.95;;;9.90;99.90;;;;;;5074348;28;20154;-93
2022/04/06 01:41:07;;;;;;;21.75;14.32;;;9.80;99.90;;;;;;5056150;28;20029;-92
2022/04/06 01:43:33;;;;;;;21.40;14.27;;;9.80;99.90;;;;;;5055807;28;20027;-91
2022/04/06 01:46:34;;;;;;;23.38;13.20;;;9.80;99.90;;;;;;5055974;28;20040;-91
2022/04/06 01:55:19;;;;;;;23.90;15.50;;;9.80;99.90;;;;;;5058671;28;20459;-93
2022/04/06 01:57:45;;;;;;;30.23;14.98;;;9.80;99.90;;;;;;5032633;28;20123;-92
2022/04/06 02:00:15;;;;;;;25.83;15.98;;;9.70;99.90;;;;;;5033035;28;20060;-92
2022/04/06 02:06:02;;;;;;;29.70;16.33;;;9.70;99.90;;;;;;5033529;28;20516;-92
2022/04/06 02:11:50;;;;;;;31.35;17.85;;;9.70;99.90;;;;;;5034570;28;20036;-92
2022/04/06 02:14:16;;;;;;;28.63;17.00;;;9.70;99.90;;;;;;5032641;28;20112;-92
2022/04/06 02:20:05;;;;;;;33.08;17.33;;;9.60;99.90;;;;;;5033797;28;20040;-92
2022/04/06 02:22:37;;;;;;;36.67;17.95;;;9.60;99.90;;;;;;5033532;28;20465;-92
2022/04/06 02:25:04;;;;;;;33.00;18.98;;;9.60;99.90;;;;;;5035453;28;20022;-90
2022/04/06 02:27:29;;;;;;;31.98;16.85;;;9.60;99.90;;;;;;5035736;28;20025;-91
2022/04/06 02:30:28;;;;;;;40.40;18.60;;;9.60;99.90;;;;;;5035824;28;20087;-92
2022/04/06 02:32:54;;;;;;;25.08;16.95;;;9.60;99.90;;;;;;5035821;28;20473;-93
2022/04/06 02:35:19;;;;;;;41.08;16.88;;;9.60;99.90;;;;;;5035895;28;20026;-90
2022/04/06 02:38:13;;;;;;;35.20;18.40;;;9.50;99.90;;;;;;5036831;28;20099;-90
2022/04/06 02:40:38;;;;;;;35.92;16.70;;;9.50;99.90;;;;;;5035926;28;20500;-93
2022/04/06 02:43:04;;;;;;;36.22;17.50;;;9.50;99.90;;;;;;5035907;28;20060;-92
2022/04/06 02:45:34;;;;;;;40.58;16.77;;;9.50;99.90;;;;;;5036075;28;20091;-92
2022/04/06 02:47:59;;;;;;;29.58;15.00;;;9.40;99.90;;;;;;5036214;28;20032;-92
2022/04/06 02:50:25;;;;;;;28.25;14.50;;;9.50;99.90;;;;;;5036035;28;20025;-91
2022/04/06 02:53:27;;;;;;;27.73;15.27;;;9.50;99.90;;;;;;5037015;28;20033;-90
2022/04/06 02:59:14;;;;;;;28.75;14.63;;;9.50;99.90;;;;;;5056257;28;20496;-90
2022/04/06 03:01:50;;;;;;;32.67;13.98;;;9.50;99.90;;;;;;5054930;28;20112;-91
2022/04/06 03:04:16;;;;;;;37.45;15.07;;;9.50;99.90;;;;;;5055007;28;20025;-91
2022/04/06 03:06:41;;;;;;;26.63;13.98;;;9.50;99.90;;;;;;5054718;28;20032;-90
2022/04/06 03:09:52;;;;;;;31.35;14.15;;;9.50;99.90;;;;;;5056098;28;20105;-90
2022/04/06 03:12:18;;;;;;;25.02;12.80;;;9.50;99.90;;;;;;5053801;28;20111;-90
2022/04/06 03:14:49;;;;;;;30.48;12.85;;;9.50;99.90;;;;;;5055516;28;20063;-91
2022/04/06 03:17:16;;;;;;;24.60;13.25;;;9.50;99.90;;;;;;5054443;28;20013;-91
2022/04/06 03:19:42;;;;;;;40.00;12.85;;;9.50;99.90;;;;;;5054297;28;20041;-90
2022/04/06 03:22:19;;;;;;;24.33;11.20;;;9.50;99.90;;;;;;5053880;28;20028;-89
2022/04/06 03:24:45;;;;;;;31.05;11.88;;;9.50;99.90;;;;;;5035237;28;20044;-87
2022/04/06 03:27:34;;;;;;;28.95;10.52;;;9.50;99.90;;;;;;5040294;28;20372;-88
2022/04/06 03:30:04;;;;;;;28.65;10.40;;;9.50;99.90;;;;;;5055176;28;20060;-88
2022/04/06 03:32:32;;;;;;;20.33;10.10;;;9.50;99.90;;;;;;5053488;28;20017;-87
2022/04/06 03:34:57;;;;;;;25.85;10.45;;;9.50;99.90;;;;;;5054700;28;20029;-89
2022/04/06 03:37:23;;;;;;;28.88;9.82;;;9.50;99.90;;;;;;5053605;28;20025;-87
2022/04/06 03:40:05;;;;;;;22.85;9.27;;;9.60;99.90;;;;;;5053629;28;20389;-88
2022/04/06 03:42:33;;;;;;;22.70;9.43;;;9.60;99.90;;;;;;5053621;28;20017;-89
2022/04/06 03:44:59;;;;;;;23.27;9.48;;;9.50;99.90;;;;;;5053538;28;20499;-87
2022/04/06 03:47:36;;;;;;;23.77;9.07;;;9.50;99.90;;;;;;5053256;28;20033;-89
2022/04/06 03:50:04;;;;;;;27.52;9.05;;;9.50;99.90;;;;;;5054759;28;20467;-85
2022/04/06 03:52:31;;;;;;;26.38;10.73;;;9.60;99.90;;;;;;5053354;28;20033;-88
2022/04/06 03:54:57;;;;;;;32.05;9.50;;;9.50;99.90;;;;;;5053532;28;20110;-89
2022/04/06 03:57:24;;;;;;;23.08;9.52;;;9.50;99.90;;;;;;5068784;28;20052;-88
2022/04/06 04:00:04;;;;;;;29.35;8.60;;;9.50;99.90;;;;;;5070262;28;20032;-89
2022/04/06 04:02:40;;;;;;;22.38;8.15;;;9.50;99.90;;;;;;5069743;28;20017;-88
2022/04/06 04:05:06;;;;;;;23.80;8.70;;;9.50;99.90;;;;;;5069429;28;20021;-87
2022/04/06 04:07:37;;;;;;;15.18;7.47;;;9.50;99.90;;;;;;5043659;28;20104;-88
2022/04/06 04:10:05;;;;;;;27.48;8.25;;;9.50;99.90;;;;;;5069781;28;20021;-86
2022/04/06 04:12:34;;;;;;;20.27;8.80;;;9.50;99.90;;;;;;5053932;28;20013;-85
2022/04/06 04:14:59;;;;;;;21.60;8.98;;;9.50;99.90;;;;;;5054213;28;20104;-88
2022/04/06 04:17:45;;;;;;;31.33;9.32;;;9.50;99.90;;;;;;5053822;28;20048;-89
2022/04/06 04:20:11;;;;;;;23.25;10.13;;;9.50;99.90;;;;;;5033138;28;20393;-88
2022/04/06 04:22:37;;;;;;;26.92;10.48;;;9.50;99.90;;;;;;5043861;28;20036;-86
2022/04/06 04:25:03;;;;;;;29.35;12.23;;;9.50;99.90;;;;;;5054636;28;20480;-89
2022/04/06 04:27:29;;;;;;;25.88;10.77;;;9.50;99.90;;;;;;5053567;28;20143;-88
2022/04/06 04:29:58;;;;;;;29.15;11.18;;;9.50;99.90;;;;;;5053175;28;20110;-88
2022/04/06 04:32:23;;;;;;;24.67;11.60;;;9.50;99.90;;;;;;5052753;28;20204;-87
2022/04/06 04:35:00;;;;;;;27.98;12.02;;;9.50;99.90;;;;;;5053875;28;20116;-86
2022/04/06 04:37:26;;;;;;;28.15;11.88;;;9.50;99.90;;;;;;5046896;28;20783;-88
2022/04/06 04:39:51;;;;;;;23.55;12.20;;;9.40;99.90;;;;;;5053809;28;20033;-89
2022/04/06 04:42:26;;;;;;;27.73;14.48;;;9.40;99.90;;;;;;5051455;28;20021;-87
2022/04/06 04:44:52;;;;;;;22.10;11.85;;;9.40;99.90;;;;;;5051674;28;20033;-88
2022/04/06 04:47:30;;;;;;;32.65;14.45;;;9.40;99.90;;;;;;5052654;28;20039;-88
2022/04/06 04:49:56;;;;;;;27.90;12.38;;;9.40;99.90;;;;;;5053099;28;20017;-87
2022/04/06 04:52:33;;;;;;;23.23;12.07;;;9.40;99.90;;;;;;5052120;28;20028;-89
2022/04/06 04:54:59;;;;;;;25.85;12.27;;;9.50;99.90;;;;;;5053528;28;20033;-88
2022/04/06 04:57:24;;;;;;;27.25;13.90;;;9.40;99.90;;;;;;5067884;28;20565;-86
2022/04/06 04:59:59;;;;;;;26.48;12.77;;;9.40;99.90;;;;;;5073140;28;20039;-87
2022/04/06 05:02:24;;;;;;;23.80;12.23;;;9.40;99.90;;;;;;5073211;28;20033;-87
2022/04/06 05:04:50;;;;;;;26.98;13.57;;;9.50;99.90;;;;;;5073116;28;20383;-87
2022/04/06 05:07:16;;;;;;;28.40;14.60;;;9.50;99.90;;;;;;5072542;28;20063;-87
2022/04/06 05:09:43;;;;;;;23.33;14.00;;;9.50;99.90;;;;;;5055133;28;20020;-87
2022/04/06 05:12:09;;;;;;;28.67;15.70;;;9.50;99.90;;;;;;5072631;28;20365;-86
2022/04/06 05:14:55;;;;;;;26.60;13.63;;;9.50;99.90;;;;;;5072763;28;20028;-88
2022/04/06 05:17:20;;;;;;;43.42;15.82;;;9.50;99.90;;;;;;5072397;28;20021;-88
2022/04/06 05:19:49;;;;;;;27.15;13.73;;;9.50;99.90;;;;;;5072558;28;20025;-88
2022/04/06 05:22:15;;;;;;;27.92;14.00;;;9.50;99.90;;;;;;5072691;28;20108;-86
2022/04/06 05:24:43;;;;;;;29.88;16.17;;;9.50;99.90;;;;;;5072676;28;20060;-86
2022/04/06 05:27:08;;;;;;;38.08;15.23;;;9.50;99.90;;;;;;5054677;28;20029;-87
2022/04/06 05:29:35;;;;;;;36.92;15.90;;;9.60;99.90;;;;;;5054772;28;20016;-88
2022/04/06 05:32:01;;;;;;;30.08;15.20;;;9.60;99.90;;;;;;5072821;28;20028;-87
2022/04/06 05:34:27;;;;;;;33.90;15.63;;;9.60;99.90;;;;;;5072646;28;20023;-88
2022/04/06 05:36:53;;;;;;;35.22;16.88;;;9.60;99.90;;;;;;5072733;28;20243;-87
2022/04/06 05:39:34;;;;;;;35.95;17.45;;;9.60;99.90;;;;;;5072621;28;20028;-87
2022/04/06 05:41:59;;;;;;;47.38;18.85;;;9.60;99.90;;;;;;5054380;28;20026;-88
2022/04/06 05:44:27;;;;;;;45.88;19.42;;;9.50;99.90;;;;;;5054642;28;20024;-88
2022/04/06 05:46:52;;;;;;;54.40;20.48;;;9.60;99.90;;;;;;5072582;28;20028;-86
2022/04/06 05:49:20;;;;;;;41.38;19.00;;;9.60;99.90;;;;;;5072485;28;20025;-87
2022/04/06 05:51:46;;;;;;;40.88;19.15;;;9.60;99.90;;;;;;5072420;28;20025;-88
2022/04/06 05:54:11;;;;;;;45.42;21.25;;;9.60;99.90;;;;;;5054512;28;20456;-87
2022/04/06 05:56:37;;;;;;;44.83;18.73;;;9.50;99.90;;;;;;5072493;28;20617;-87
2022/04/06 05:59:02;;;;;;;31.30;15.23;;;9.50;99.90;;;;;;5074884;28;20506;-88
2022/04/06 06:01:28;;;;;;;41.47;16.80;;;9.60;99.90;;;;;;5059224;28;20032;-90
2022/04/06 06:03:55;;;;;;;39.67;15.55;;;9.60;99.90;;;;;;5075404;28;20479;-87
2022/04/06 06:06:25;;;;;;;32.90;17.30;;;9.60;99.90;;;;;;5076394;28;20075;-87
2022/04/06 06:08:51;;;;;;;28.73;15.35;;;9.60;99.90;;;;;;5076677;28;20048;-89
2022/04/06 06:11:27;;;;;;;34.90;16.67;;;9.60;99.90;;;;;;5058980;28;20436;-88
2022/04/06 06:13:52;;;;;;;38.13;16.02;;;9.60;99.90;;;;;;5076004;28;20406;-87
2022/04/06 06:16:34;;;;;;;34.17;13.88;;;9.60;99.90;;;;;;5076346;28;20082;-87
2022/04/06 06:18:59;;;;;;;32.33;13.82;;;9.60;99.90;;;;;;5075086;28;20025;-88
2022/04/06 06:21:27;;;;;;;37.17;15.82;;;9.60;99.90;;;;;;5076195;28;20400;-87
2022/04/06 06:23:53;;;;;;;36.25;16.45;;;9.70;99.90;;;;;;5076178;28;20021;-87
2022/04/06 06:26:21;;;;;;;43.10;18.17;;;9.50;99.90;;;;;;5076083;28;20071;-87
2022/04/06 06:28:47;;;;;;;36.88;16.80;;;9.60;99.90;;;;;;5075745;28;20028;-85
2022/04/06 06:31:14;;;;;;;40.78;15.48;;;9.60;99.90;;;;;;5076150;28;20108;-87
2022/04/06 06:33:39;;;;;;;43.22;17.52;;;9.60;99.90;;;;;;5075949;28;20052;-87
2022/04/06 06:36:05;;;;;;;42.58;17.88;;;9.60;99.90;;;;;;5075870;28;20542;-88
2022/04/06 06:38:30;;;;;;;40.85;17.17;;;9.60;99.90;;;;;;5076067;28;20059;-87
2022/04/06 06:41:21;;;;;;;40.72;15.95;;;9.70;99.90;;;;;;5075941;28;20486;-88
2022/04/06 06:43:48;;;;;;;32.72;14.57;;;9.60;99.90;;;;;;5075436;28;20119;-88
2022/04/06 06:46:22;;;;;;;34.15;14.02;;;9.70;99.90;;;;;;5075898;28;20448;-87
2022/04/06 06:48:49;;;;;;;40.90;14.70;;;9.70;99.90;;;;;;5075720;28;20111;-87
2022/04/06 06:51:31;;;;;;;28.13;13.88;;;9.60;99.90;;;;;;5074448;28;20472;-87
2022/04/06 06:53:58;;;;;;;28.83;14.35;;;9.60;99.90;;;;;;5057764;28;20025;-88
2022/04/06 06:56:23;;;;;;;33.17;14.15;;;9.60;99.90;;;;;;5068744;28;20132;-87
2022/04/06 06:58:49;;;;;;;28.08;13.00;;;9.60;99.90;;;;;;5075298;28;20120;-87
2022/04/06 07:01:20;;;;;;;29.40;13.00;;;9.60;99.90;;;;;;5075560;28;20036;-88
2022/04/06 07:03:45;;;;;;;34.83;12.90;;;9.60;99.90;;;;;;5075484;28;20103;-88
2022/04/06 07:06:14;;;;;;;25.40;11.57;;;9.70;99.90;;;;;;5075415;28;20433;-88
2022/04/06 07:08:39;;;;;;;22.20;10.63;;;9.60;99.90;;;;;;5075242;28;20085;-87
2022/04/06 07:11:06;;;;;;;37.85;13.52;;;9.60;99.90;;;;;;5074793;28;20103;-88
2022/04/06 07:13:31;;;;;;;35.15;13.35;;;9.60;99.90;;;;;;5074747;28;20501;-89
2022/04/06 07:15:57;;;;;;;28.08;11.80;;;9.70;99.90;;;;;;5075205;28;20025;-88
2022/04/06 07:18:23;;;;;;;24.77;12.40;;;9.70;99.90;;;;;;5075334;28;20383;-88
2022/04/06 07:20:55;;;;;;;29.70;12.63;;;9.70;99.90;;;;;;5075179;28;20052;-87
2022/04/06 07:23:20;;;;;;;27.25;12.32;;;9.80;99.90;;;;;;5075077;28;20416;-88
2022/04/06 07:26:00;;;;;;;28.48;12.05;;;9.80;99.90;;;;;;5075009;28;20154;-87
2022/04/06 07:28:26;;;;;;;31.63;10.93;;;9.90;99.90;;;;;;5074580;28;20077;-87
2022/04/06 07:30:53;;;;;;;25.73;11.52;;;9.90;99.90;;;;;;5057195;28;20107;-88
2022/04/06 07:33:18;;;;;;;26.83;10.93;;;10.00;99.90;;;;;;5074862;28;20492;-87
2022/04/06 07:35:46;;;;;;;33.58;11.13;;;10.00;99.90;;;;;;5075092;28;20031;-87
2022/04/06 07:38:14;;;;;;;21.95;10.20;;;10.10;99.90;;;;;;5074797;28;20100;-87
2022/04/06 07:40:51;;;;;;;22.25;9.80;;;10.00;99.90;;;;;;5074793;28;20040;-87
2022/04/06 07:43:17;;;;;;;28.15;10.75;;;10.00;99.90;;;;;;5074354;28;20034;-84
2022/04/06 07:45:46;;;;;;;26.42;11.23;;;10.00;99.90;;;;;;5074646;28;20028;-87
2022/04/06 07:48:11;;;;;;;24.35;10.27;;;9.90;99.90;;;;;;5074773;28;20023;-86
2022/04/06 07:50:44;;;;;;;27.23;10.32;;;9.90;99.90;;;;;;5074770;28;20472;-88
2022/04/06 07:53:11;;;;;;;26.52;9.80;;;9.90;99.90;;;;;;5074431;28;20530;-87
2022/04/06 07:55:37;;;;;;;26.42;8.88;;;9.90;99.90;;;;;;5074387;28;20464;-89
2022/04/06 07:58:02;;;;;;;27.52;10.38;;;9.90;99.90;;;;;;5074151;28;20051;-88
2022/04/06 08:00:33;;;;;;;22.90;9.82;;;9.90;99.90;;;;;;5056069;28;20034;-87
2022/04/06 08:03:00;;;;;;;24.85;10.52;;;9.80;99.90;;;;;;5074677;28;20025;-92
2022/04/06 08:05:26;;;;;;;20.73;9.68;;;9.80;99.90;;;;;;5075005;28;20020;-91
2022/04/06 08:07:53;;;;;;;18.20;9.02;;;9.80;99.90;;;;;;5057209;28;20039;-91
2022/04/06 08:10:21;;;;;;;22.58;9.35;;;9.70;99.90;;;;;;5072352;28;20027;-90
2022/04/06 08:12:47;;;;;;;26.75;10.07;;;9.70;99.90;;;;;;5053025;28;20021;-91
2022/04/06 08:15:14;;;;;;;20.58;9.15;;;9.70;99.90;;;;;;5075329;28;20074;-92
2022/04/06 08:17:58;;;;;;;18.27;7.97;;;9.70;99.90;;;;;;5059037;28;20024;-93
2022/04/06 08:20:23;;;;;;;20.05;8.15;;;9.80;99.90;;;;;;5058830;28;20120;-90
2022/04/06 08:23:30;;;;;;;21.45;8.38;;;9.90;99.90;;;;;;5074622;28;20063;-93
2022/04/06 08:25:55;;;;;;;19.08;7.60;;;9.90;99.90;;;;;;5075364;28;20036;-92
2022/04/06 08:28:31;;;;;;;19.27;7.70;;;9.90;99.90;;;;;;5074871;28;20035;-92
2022/04/06 08:30:56;;;;;;;16.00;7.13;;;10.00;99.90;;;;;;5056792;28;20086;-91
2022/04/06 08:33:47;;;;;;;22.48;7.85;;;10.10;99.90;;;;;;5074833;28;20032;-92
2022/04/06 08:36:13;;;;;;;16.65;7.47;;;10.10;99.90;;;;;;5074932;28;20029;-93
2022/04/06 08:38:38;;;;;;;15.70;6.90;;;10.20;99.90;;;;;;5074565;28;20028;-93
2022/04/06 08:41:18;;;;;;;24.45;6.55;;;10.30;99.90;;;;;;5074357;28;20028;-90
2022/04/06 08:43:44;;;;;;;21.20;6.38;;;10.30;99.90;;;;;;5056277;28;20480;-92
2022/04/06 08:46:37;;;;;;;13.60;6.05;;;10.30;99.90;;;;;;5055995;28;20383;-93
2022/04/06 08:49:03;;;;;;;20.33;6.18;;;10.30;99.90;;;;;;5074019;28;20134;-92
2022/04/06 08:51:44;;;;;;;12.07;6.38;;;10.40;99.90;;;;;;5056334;28;20020;-91
2022/04/06 08:54:10;;;;;;;16.77;6.50;;;10.40;99.90;;;;;;5056372;28;20032;-92
2022/04/06 08:56:36;;;;;;;15.60;5.25;;;10.40;99.90;;;;;;5052370;28;20044;-91
2022/04/06 08:59:04;;;;;;;14.27;4.90;;;10.40;99.90;;;;;;5074179;28;20043;-93
2022/04/06 09:01:39;;;;;;;14.60;5.22;;;10.50;99.90;;;;;;5056216;28;20438;-92
2022/04/06 09:04:04;;;;;;;12.65;5.10;;;10.50;99.90;;;;;;5055703;28;20033;-91
2022/04/06 09:06:42;;;;;;;10.13;4.88;;;10.60;99.90;;;;;;5073595;28;20476;-91
2022/04/06 09:09:09;;;;;;;10.02;4.70;;;10.60;99.90;;;;;;5055981;28;20025;-91
2022/04/06 09:11:51;;;;;;;15.52;5.63;;;10.60;99.90;;;;;;5056151;28;20024;-93
2022/04/06 09:14:58;;;;;;;16.75;4.90;;;10.60;99.90;;;;;;5073706;28;20021;-93
2022/04/06 09:17:24;;;;;;;12.25;5.18;;;10.60;99.90;;;;;;5055798;28;20506;-90
2022/04/06 09:20:24;;;;;;;14.85;5.13;;;10.50;99.90;;;;;;5073382;28;20101;-95
2022/04/06 09:22:49;;;;;;;13.43;5.38;;;10.50;99.90;;;;;;5055622;28;20031;-91
2022/04/06 09:25:56;;;;;;;25.17;5.25;;;10.40;99.90;;;;;;5073708;28;20021;-90
2022/04/06 09:28:22;;;;;;;18.45;6.00;;;10.40;99.90;;;;;;5073041;28;20028;-91
2022/04/06 09:34:42;;;;;;;18.08;5.75;;;10.40;99.90;;;;;;5073087;28;20031;-93
2022/04/06 09:37:28;;;;;;;11.85;6.03;;;10.40;99.90;;;;;;5055961;28;20069;-92
2022/04/06 09:39:56;;;;;;;15.63;5.43;;;10.40;99.90;;;;;;5055497;28;20036;-95
2022/04/06 09:42:27;;;;;;;14.60;5.57;;;10.40;99.90;;;;;;5055575;28;20028;-91
2022/04/06 09:47:51;;;;;;;16.77;5.47;;;10.30;99.90;;;;;;5073666;28;20123;-94
2022/04/06 09:50:20;;;;;;;14.00;5.25;;;10.30;99.90;;;;;;5073498;28;20017;-92
2022/04/06 09:52:57;;;;;;;13.95;5.32;;;10.30;99.90;;;;;;5055700;28;20021;-89
2022/04/06 09:55:23;;;;;;;11.45;5.50;;;10.30;99.90;;;;;;5054913;28;20384;-91
2022/04/06 09:57:55;;;;;;;17.75;5.82;;;10.30;99.90;;;;;;5063553;28;20131;-91
2022/04/06 10:00:30;;;;;;;9.27;5.13;;;10.30;99.90;;;;;;5055247;28;20047;-89
2022/04/06 10:03:05;;;;;;;14.00;4.35;;;10.30;99.90;;;;;;5073019;28;20401;-90
2022/04/06 10:05:33;;;;;;;16.48;5.97;;;10.30;99.90;;;;;;5054859;28;20123;-89
2022/04/06 10:08:22;;;;;;;14.88;6.43;;;10.40;99.90;;;;;;5072478;28;20029;-87
2022/04/06 10:10:53;;;;;;;12.27;5.13;;;10.50;99.90;;;;;;5072807;28;20048;-92
2022/04/06 10:13:19;;;;;;;12.80;5.82;;;10.50;99.90;;;;;;5054424;28;20021;-88
2022/04/06 10:15:45;;;;;;;17.15;6.38;;;10.50;99.90;;;;;;5072641;28;20472;-89
2022/04/06 10:18:32;;;;;;;12.40;6.57;;;10.50;99.90;;;;;;5072522;28;20033;-89
2022/04/06 10:21:15;;;;;;;12.07;6.95;;;10.50;99.90;;;;;;5054777;28;20024;-88
2022/04/06 10:23:55;;;;;;;12.98;6.07;;;10.60;99.90;;;;;;5072634;28;20074;-93
2022/04/06 10:26:59;;;;;;;14.43;7.03;;;10.60;99.90;;;;;;5072296;28;20016;-92
2022/04/06 10:29:24;;;;;;;15.93;6.80;;;10.80;99.90;;;;;;5072646;28;20024;-89
2022/04/06 10:31:50;;;;;;;52.25;13.77;;;10.80;99.90;;;;;;5054548;28;20021;-89
2022/04/06 10:34:19;;;;;;;43.42;12.95;;;10.80;99.90;;;;;;5054171;28;20017;-88
2022/04/06 10:37:11;;;;;;;18.48;7.93;;;10.80;99.90;;;;;;5072574;28;20024;-90
2022/04/06 10:39:52;;;;;;;13.30;6.68;;;10.80;99.90;;;;;;5054297;28;20025;-88
2022/04/06 10:42:50;;;;;;;19.17;6.45;;;10.70;99.90;;;;;;5072447;28;20044;-89
2022/04/06 10:45:24;;;;;;;17.70;6.18;;;10.70;99.90;;;;;;5055537;28;20020;-88
2022/04/06 10:48:09;;;;;;;17.75;6.32;;;10.80;99.90;;;;;;5076240;28;20392;-88
2022/04/06 10:50:44;;;;;;;22.58;7.63;;;10.80;99.90;;;;;;5076103;28;20150;-87
2022/04/06 10:53:18;;;;;;;11.30;5.90;;;10.80;99.90;;;;;;5056231;28;20060;-90
2022/04/06 10:59:08;;;;;;;8.68;4.65;;;10.70;99.90;;;;;;5055967;28;20147;-90
2022/04/06 11:01:34;;;;;;;13.45;5.05;;;10.70;99.90;;;;;;5056043;28;20032;-88
2022/04/06 11:04:04;;;;;;;16.52;5.47;;;10.70;99.90;;;;;;5056038;28;20481;-88
2022/04/06 11:06:56;;;;;;;17.20;5.30;;;10.70;99.90;;;;;;5051166;28;20024;-89
2022/04/06 11:12:21;;;;;;;;;;;10.70;99.90;;;;;;5075700;28;20035;-88
2022/04/06 11:14:49;;;;;;;14.90;4.25;;;10.80;99.90;;;;;;5075672;28;19954;-91
2022/04/06 11:17:56;;;;;;;11.80;4.72;;;10.70;99.90;;;;;;5057054;28;20029;-90
2022/04/06 11:20:40;;;;;;;12.18;4.05;;;10.80;99.90;;;;;;5075075;28;20028;-90
2022/04/06 11:23:07;;;;;;;18.40;5.25;;;10.90;99.90;;;;;;5059537;28;20037;-89
2022/04/06 11:25:47;;;;;;;15.20;3.85;;;11.10;99.90;;;;;;5075266;28;20028;-93
2022/04/06 11:28:12;;;;;;;12.43;3.70;;;11.20;99.90;;;;;;5074947;28;20074;-88
2022/04/06 11:30:52;;;;;;;18.73;3.70;;;11.30;99.90;;;;;;5057402;28;20119;-92
2022/04/06 11:33:18;;;;;;;15.07;3.50;;;11.40;99.90;;;;;;5075109;28;20025;-88
2022/04/06 11:35:52;;;;;;;9.35;3.58;;;11.50;99.90;;;;;;5075291;28;20582;-88
2022/04/06 11:38:17;;;;;;;6.68;3.25;;;11.60;99.90;;;;;;5074994;28;20024;-90
2022/04/06 11:40:43;;;;;;;12.48;3.60;;;11.80;99.90;;;;;;5075207;28;20052;-91
2022/04/06 11:43:08;;;;;;;15.18;3.60;;;11.90;99.90;;;;;;5074651;28;20025;-89
2022/04/06 11:45:44;;;;;;;6.80;2.67;;;11.90;99.90;;;;;;5057092;28;20432;-90
2022/04/06 11:48:15;;;;;;;6.53;2.60;;;11.90;99.90;;;;;;5075016;28;20016;-93
2022/04/06 11:50:42;;;;;;;12.05;2.90;;;12.00;99.90;;;;;;5056991;28;20081;-89
2022/04/06 11:53:21;;;;;;;11.35;2.80;;;12.20;99.90;;;;;;5056781;28;20029;-90
2022/04/06 11:55:48;;;;;;;6.47;2.47;;;12.20;99.90;;;;;;5057108;28;20376;-88
2022/04/06 11:58:44;;;;;;;19.02;3.42;;;12.20;99.90;;;;;;5053155;28;20048;-89
2022/04/06 12:01:50;;;;;;;11.25;3.00;;;12.20;99.90;;;;;;5054877;28;20086;-91
2022/04/06 12:04:22;;;;;;;8.52;2.78;;;12.30;99.90;;;;;;5054601;28;20028;-90
2022/04/06 12:06:49;;;;;;;7.45;2.47;;;12.30;99.90;;;;;;5054388;28;20035;-90
2022/04/06 12:09:36;;;;;;;12.82;3.75;;;12.40;99.90;;;;;;5054350;28;20029;-90
2022/04/06 12:12:05;;;;;;;6.82;2.45;;;12.50;99.90;;;;;;5053968;28;20029;-88
2022/04/06 12:15:10;;;;;;;5.43;2.70;;;12.50;99.90;;;;;;5054357;28;20504;-90
2022/04/06 12:17:37;;;;;;;7.30;2.53;;;12.80;99.90;;;;;;5054425;28;20099;-90
2022/04/06 12:20:35;;;;;;;4.78;2.35;;;12.60;99.90;;;;;;5054489;28;20048;-90
2022/04/06 12:23:02;;;;;;;12.50;2.88;;;12.70;99.90;;;;;;5053097;28;20067;-89
2022/04/06 12:25:30;;;;;;;11.65;2.78;;;12.70;99.90;;;;;;5054134;28;20028;-91
2022/04/06 12:28:17;;;;;;;11.85;2.53;;;12.80;99.90;;;;;;5054072;28;20020;-89
2022/04/06 12:31:11;;;;;;;6.10;2.30;;;12.70;99.90;;;;;;5054023;28;20078;-88
2022/04/06 12:33:50;;;;;;;10.32;2.92;;;12.60;99.90;;;;;;5051658;28;20036;-88
2022/04/06 12:36:30;;;;;;;12.70;2.65;;;12.70;99.90;;;;;;5052621;28;20055;-89
2022/04/06 12:39:16;;;;;;;9.07;2.70;;;12.80;99.90;;;;;;5053891;28;20021;-88
2022/04/06 12:41:56;;;;;;;6.22;2.40;;;12.80;99.90;;;;;;5052275;28;20025;-88
2022/04/06 12:44:31;;;;;;;9.30;2.25;;;12.50;99.90;;;;;;5053851;28;20106;-90
2022/04/06 12:46:57;;;;;;;11.85;2.17;;;12.40;99.90;;;;;;5053528;28;20036;-88
2022/04/06 12:49:28;;;;;;;6.65;2.08;;;12.30;99.90;;;;;;5053832;28;20021;-88
2022/04/06 12:52:20;;;;;;;9.73;2.45;;;12.10;99.90;;;;;;5052461;28;20413;-88
2022/04/06 12:54:47;;;;;;;9.73;1.80;;;12.00;99.90;;;;;;5052071;28;20494;-87
2022/04/06 12:57:19;;;;;;;10.07;2.30;;;11.80;99.90;;;;;;5052079;28;20082;-89
2022/04/06 12:59:58;;;;;;;4.65;1.83;;;11.80;99.90;;;;;;5071462;28;20424;-87
2022/04/06 13:02:37;;;;;;;7.00;1.98;;;11.80;99.90;;;;;;5035359;28;20048;-88
2022/04/06 13:05:09;;;;;;;9.88;2.10;;;11.80;99.90;;;;;;5053332;28;20025;-87
2022/04/06 13:07:48;;;;;;;7.50;2.10;;;11.80;99.90;;;;;;5053968;28;20040;-88
2022/04/06 13:10:16;;;;;;;6.63;1.60;;;11.80;99.90;;;;;;5054868;28;20375;-87
2022/04/06 13:12:55;;;;;;;6.90;1.98;;;11.80;99.90;;;;;;5071080;28;20092;-86
2022/04/06 13:15:20;;;;;;;6.18;2.00;;;11.90;99.90;;;;;;5065891;28;20021;-89
2022/04/06 13:17:50;;;;;;;6.97;1.67;;;11.90;99.90;;;;;;5053046;28;20086;-88
2022/04/06 13:20:19;;;;;;;5.63;1.63;;;11.90;99.90;;;;;;5045159;28;20111;-88
2022/04/06 13:22:48;;;;;;;9.50;1.85;;;11.90;99.90;;;;;;5071690;28;20391;-88
2022/04/06 13:25:15;;;;;;;8.85;1.92;;;11.90;99.90;;;;;;5055000;28;20033;-89
2022/04/06 13:27:42;;;;;;;10.52;1.80;;;11.80;99.90;;;;;;5054813;28;20468;-88
2022/04/06 13:30:13;;;;;;;10.25;2.22;;;12.00;99.90;;;;;;5053841;28;20379;-87
2022/04/06 13:32:57;;;;;;;9.48;2.10;;;12.10;99.90;;;;;;5054837;28;20016;-89
2022/04/06 13:35:23;;;;;;;6.72;1.55;;;12.40;99.90;;;;;;5054793;28;20028;-88
2022/04/06 13:38:13;;;;;;;8.65;2.20;;;12.50;99.90;;;;;;5072655;28;20380;-88
2022/04/06 13:40:39;;;;;;;8.43;1.65;;;12.60;99.90;;;;;;5072455;28;20052;-87
2022/04/06 13:43:05;;;;;;;5.55;1.45;;;12.90;99.90;;;;;;5072543;28;20070;-88
2022/04/06 13:45:30;;;;;;;19.25;2.80;;;12.90;99.90;;;;;;5069655;28;20028;-88
2022/04/06 13:48:04;;;;;;;17.02;1.75;;;13.00;99.90;;;;;;5072275;28;20013;-88
2022/04/06 13:50:30;;;;;;;9.15;1.73;;;13.20;99.90;;;;;;5062951;28;20098;-89
2022/04/06 13:53:05;;;;;;;6.63;1.67;;;13.10;99.90;;;;;;5072339;28;20029;-88
2022/04/06 13:55:31;;;;;;;4.00;1.48;;;13.20;99.90;;;;;;5072301;28;20100;-88
2022/04/06 13:57:57;;;;;;;12.30;2.10;;;13.20;99.90;;;;;;5068268;28;20532;-88
2022/04/06 14:00:23;;;;;;;7.78;1.85;;;13.10;99.90;;;;;;5051113;28;20035;-91
2022/04/06 14:02:55;;;;;;;10.70;2.13;;;13.10;99.90;;;;;;5052265;28;20095;-88
2022/04/06 14:05:20;;;;;;;7.65;1.35;;;13.30;99.90;;;;;;5051059;28;20412;-89
2022/04/06 14:07:49;;;;;;;9.48;1.73;;;13.40;99.90;;;;;;5052555;28;20025;-88
2022/04/06 14:10:25;;;;;;;6.38;1.67;;;13.40;99.90;;;;;;5051896;28;20460;-90
2022/04/06 14:12:50;;;;;;;7.00;1.63;;;13.50;99.90;;;;;;5052274;28;20036;-88
2022/04/06 14:15:42;;;;;;;8.60;2.45;;;13.50;99.90;;;;;;5052281;28;20021;-91